createdAt,value
2018-12-02T00:00:31.478Z,20.30
2018-12-02T00:02:06.897Z,19.20
2018-12-02T00:03:41.860Z,17.82
2018-12-02T00:05:16.859Z,16.60
2018-12-02T00:06:51.800Z,16.82
2018-12-02T00:08:26.879Z,16.82
2018-12-02T00:10:01.828Z,16.70
2018-12-02T00:11:36.805Z,17.55
2018-12-02T00:13:11.784Z,17.80
2018-12-02T00:14:46.866Z,17.10
2018-12-02T00:16:21.858Z,16.42
2018-12-02T00:18:00.071Z,16.27
2018-12-02T00:19:35.044Z,14.87
2018-12-02T00:21:10.027Z,17.35
2018-12-02T00:22:45.042Z,16.48
2018-12-02T00:24:19.997Z,16.02
2018-12-02T00:25:56.425Z,15.95
2018-12-02T00:27:36.408Z,15.78
2018-12-02T00:29:26.176Z,15.72
2018-12-02T00:31:01.282Z,15.80
2018-12-02T00:32:43.931Z,15.35
2018-12-02T00:34:21.651Z,14.83
2018-12-02T00:36:19.242Z,16.25
2018-12-02T00:37:59.197Z,15.83
2018-12-02T00:39:41.057Z,15.85
2018-12-02T00:41:22.592Z,15.08
2018-12-02T00:43:01.036Z,15.28
2018-12-02T00:44:36.489Z,15.20
2018-12-02T00:46:11.460Z,15.10
2018-12-02T00:47:46.515Z,15.48
2018-12-02T00:49:21.571Z,15.58
2018-12-02T00:50:56.558Z,14.87
2018-12-02T00:52:32.490Z,15.53
2018-12-02T00:54:09.247Z,13.93
2018-12-02T00:55:45.127Z,14.73
2018-12-02T00:57:20.080Z,15.35
2018-12-02T00:58:55.053Z,13.78
2018-12-02T01:00:30.003Z,14.15
2018-12-02T01:02:05.108Z,14.28
2018-12-02T01:03:40.055Z,14.00
2018-12-02T01:05:19.357Z,13.10
2018-12-02T01:06:54.296Z,14.35
2018-12-02T01:08:29.316Z,13.30
2018-12-02T01:10:04.240Z,14.50
2018-12-02T01:11:39.208Z,15.00
2018-12-02T01:13:14.138Z,14.38
2018-12-02T01:14:49.097Z,14.65
2018-12-02T01:16:29.894Z,15.45
2018-12-02T01:18:04.890Z,15.68
2018-12-02T01:19:39.832Z,14.78
2018-12-02T01:21:14.851Z,15.45
2018-12-02T01:22:49.791Z,16.73
2018-12-02T01:24:24.711Z,15.63
2018-12-02T01:25:59.655Z,15.25
2018-12-02T01:27:34.671Z,17.30
2018-12-02T01:29:09.636Z,15.95
2018-12-02T01:30:44.584Z,16.00
2018-12-02T01:32:19.505Z,15.98
2018-12-02T01:33:54.496Z,16.15
2018-12-02T01:35:29.462Z,15.90
2018-12-02T01:37:04.546Z,15.53
2018-12-02T01:38:39.515Z,16.80
2018-12-02T01:40:23.313Z,16.57
2018-12-02T01:42:05.918Z,16.93
2018-12-02T01:43:51.795Z,17.17
2018-12-02T01:45:36.487Z,19.45
2018-12-02T01:47:16.227Z,18.15
2018-12-02T01:48:53.576Z,19.70
2018-12-02T01:50:37.195Z,18.42
2018-12-02T01:52:24.084Z,17.62
2018-12-02T01:54:01.143Z,18.52
2018-12-02T01:55:36.109Z,20.77
2018-12-02T01:57:11.102Z,19.37
2018-12-02T01:58:46.440Z,20.82
2018-12-02T02:00:27.724Z,20.48
2018-12-02T02:02:02.669Z,19.17
2018-12-02T02:03:37.605Z,19.17
2018-12-02T02:05:12.548Z,19.67
2018-12-02T02:06:47.560Z,20.17
2018-12-02T02:08:22.479Z,20.57
2018-12-02T02:09:57.414Z,19.05
2018-12-02T02:11:32.366Z,20.52
2018-12-02T02:13:08.071Z,21.35
2018-12-02T02:14:42.982Z,19.95
2018-12-02T02:16:17.933Z,19.62
2018-12-02T02:17:52.862Z,21.25
2018-12-02T02:19:27.872Z,21.35
2018-12-02T02:21:02.810Z,21.70
2018-12-02T02:22:37.745Z,20.25
2018-12-02T02:24:12.704Z,21.62
2018-12-02T02:25:48.662Z,19.40
2018-12-02T02:27:24.032Z,20.57
2018-12-02T02:28:58.975Z,21.35
2018-12-02T02:30:33.920Z,21.10
2018-12-02T02:32:08.948Z,20.00
2018-12-02T02:33:43.897Z,20.85
2018-12-02T02:35:20.570Z,20.70
2018-12-02T02:36:55.516Z,19.45
2018-12-02T02:38:30.529Z,18.10
2018-12-02T02:40:13.840Z,19.10
2018-12-02T02:41:48.801Z,18.62
2018-12-02T02:43:23.748Z,18.35
2018-12-02T02:44:58.725Z,18.95
2018-12-02T02:46:33.670Z,17.62
2018-12-02T02:48:08.635Z,19.17
2018-12-02T02:49:44.505Z,17.85
2018-12-02T02:51:20.314Z,20.27
2018-12-02T02:52:59.319Z,18.85
2018-12-02T02:54:48.857Z,19.55
2018-12-02T02:56:34.887Z,18.17
2018-12-02T02:58:11.294Z,18.12
2018-12-02T02:59:51.021Z,19.35
2018-12-02T03:01:32.424Z,19.05
2018-12-02T03:06:13.967Z,18.92
2018-12-02T03:08:00.816Z,19.25
2018-12-02T03:11:59.852Z,17.87
2018-12-02T03:16:16.684Z,17.98
2018-12-02T03:18:00.943Z,18.70
2018-12-02T03:22:22.691Z,17.73
2018-12-02T03:23:59.653Z,18.12
2018-12-02T03:25:36.125Z,18.02
2018-12-02T03:27:22.714Z,17.23
2018-12-02T03:29:01.956Z,18.02
2018-12-02T03:30:39.180Z,18.37
2018-12-02T03:32:25.284Z,17.80
2018-12-02T03:34:06.813Z,17.55
2018-12-02T03:36:22.906Z,17.73
2018-12-02T03:38:12.590Z,16.37
2018-12-02T03:40:37.725Z,17.95
2018-12-02T03:42:27.403Z,17.15
2018-12-02T03:44:02.840Z,16.73
2018-12-02T03:45:38.354Z,17.15
2018-12-02T03:47:14.113Z,16.97
2018-12-02T03:48:51.009Z,16.40
2018-12-02T03:50:27.077Z,17.02
2018-12-02T03:52:02.957Z,15.50
2018-12-02T03:53:38.989Z,15.30
2018-12-02T03:55:14.619Z,16.65
2018-12-02T03:56:50.155Z,16.77
2018-12-02T03:58:26.943Z,16.00
2018-12-02T04:00:03.899Z,15.20
2018-12-02T04:01:40.193Z,17.23
2018-12-02T04:03:15.814Z,16.80
2018-12-02T04:04:51.792Z,16.07
2018-12-02T04:06:30.107Z,16.23
2018-12-02T04:08:07.559Z,15.58
2018-12-02T04:09:44.782Z,15.25
2018-12-02T04:11:22.608Z,16.20
2018-12-02T04:13:00.865Z,16.50
2018-12-02T04:14:38.405Z,13.80
2018-12-02T04:16:15.249Z,15.30
2018-12-02T04:17:52.463Z,13.45
2018-12-02T04:19:29.020Z,13.98
2018-12-02T04:21:05.514Z,13.68
2018-12-02T04:22:44.354Z,14.03
2018-12-02T04:26:13.259Z,15.28
2018-12-02T04:27:53.312Z,14.25
2018-12-02T04:29:33.050Z,13.95
2018-12-02T04:31:14.136Z,13.90
2018-12-02T04:33:00.664Z,14.75
2018-12-02T04:34:43.211Z,14.83
2018-12-02T04:36:25.241Z,14.35
2018-12-02T04:38:08.195Z,15.08
2018-12-02T04:39:48.895Z,14.68
2018-12-02T04:41:30.762Z,16.97
2018-12-02T04:43:11.268Z,16.87
2018-12-02T04:44:52.896Z,15.32
2018-12-02T04:46:35.019Z,16.07
2018-12-02T04:48:25.947Z,16.10
2018-12-02T04:50:20.456Z,15.80
2018-12-02T04:51:59.341Z,14.83
2018-12-02T04:53:39.681Z,15.65
2018-12-02T04:55:17.549Z,17.45
2018-12-02T04:56:56.187Z,16.17
2018-12-02T04:58:37.046Z,16.25
2018-12-02T05:00:17.243Z,16.70
2018-12-02T05:01:56.449Z,15.60
2018-12-02T05:03:39.348Z,16.77
2018-12-02T05:05:23.807Z,16.20
2018-12-02T05:07:07.834Z,15.53
2018-12-02T05:08:43.256Z,16.20
2018-12-02T05:10:20.263Z,16.35
2018-12-02T05:11:58.852Z,15.03
2018-12-02T05:13:36.841Z,17.40
2018-12-02T05:15:18.521Z,15.72
2018-12-02T05:16:55.279Z,15.00
2018-12-02T05:18:30.938Z,14.65
2018-12-02T05:20:10.600Z,15.45
2018-12-02T05:21:47.129Z,14.87
2018-12-02T05:23:23.473Z,14.25
2018-12-02T05:25:00.303Z,15.60
2018-12-02T05:26:38.220Z,15.18
2018-12-02T05:28:15.600Z,15.13
2018-12-02T05:29:53.458Z,16.70
2018-12-02T05:31:33.007Z,17.23
2018-12-02T05:33:17.682Z,15.65
2018-12-02T05:35:02.353Z,16.62
2018-12-02T05:36:55.453Z,13.48
2018-12-02T05:38:37.006Z,14.23
2018-12-02T05:40:24.959Z,14.07
2018-12-02T05:42:07.288Z,13.60
2018-12-02T05:43:43.473Z,14.30
2018-12-02T05:45:21.515Z,14.47
2018-12-02T05:46:57.787Z,13.78
2018-12-02T05:48:33.639Z,14.43
2018-12-02T05:50:24.601Z,13.60
2018-12-02T05:52:01.539Z,13.90
2018-12-02T05:53:39.754Z,13.18
2018-12-02T05:55:20.868Z,14.90
2018-12-02T05:56:59.629Z,14.98
2018-12-02T06:00:27.151Z,13.22
2018-12-02T06:02:05.212Z,14.58
2018-12-02T06:03:49.199Z,13.78
2018-12-02T06:05:35.930Z,13.75
2018-12-02T06:07:19.247Z,13.90
2018-12-02T06:08:56.039Z,12.82
2018-12-02T06:10:34.382Z,13.70
2018-12-02T06:12:14.610Z,13.32
2018-12-02T06:13:54.588Z,14.23
2018-12-02T06:15:36.432Z,15.58
2018-12-02T06:17:14.193Z,14.75
2018-12-02T06:19:04.866Z,15.30
2018-12-02T06:20:56.865Z,13.40
2018-12-02T06:22:46.516Z,13.90
2018-12-02T06:24:25.877Z,14.53
2018-12-02T06:26:10.580Z,14.25
2018-12-02T06:28:00.587Z,14.58
2018-12-02T06:29:52.842Z,13.58
2018-12-02T06:31:30.739Z,14.55
2018-12-02T06:33:09.008Z,14.10
2018-12-02T06:34:47.445Z,12.45
2018-12-02T06:36:33.241Z,14.00
2018-12-02T06:40:16.673Z,13.00
2018-12-02T06:42:26.888Z,13.68
2018-12-02T09:09:36.857Z,11.45
2018-12-02T09:14:44.955Z,10.60
2018-12-02T09:29:55.754Z,13.30
2018-12-02T09:31:30.775Z,14.40
2018-12-02T09:33:05.751Z,13.48
2018-12-02T09:34:40.702Z,14.47
2018-12-02T09:36:15.723Z,14.70
2018-12-02T09:37:50.660Z,14.30
2018-12-02T09:39:25.607Z,13.10
2018-12-02T09:41:00.599Z,12.23
2018-12-02T09:42:35.599Z,12.53
2018-12-02T09:44:10.571Z,12.55
2018-12-02T09:45:45.545Z,12.18
2018-12-02T09:47:20.475Z,14.13
2018-12-02T09:48:55.523Z,14.07
2018-12-02T09:50:30.526Z,13.15
2018-12-02T09:52:06.352Z,13.65
2018-12-02T09:53:41.332Z,14.60
2018-12-02T09:55:37.703Z,12.33
2018-12-02T09:57:12.721Z,11.03
2018-12-02T09:58:47.715Z,13.75
2018-12-02T10:00:23.026Z,12.13
2018-12-02T10:01:58.110Z,12.65
2018-12-02T10:03:33.122Z,14.40
2018-12-02T10:05:08.109Z,12.88
2018-12-02T10:06:43.080Z,12.43
2018-12-02T10:08:18.108Z,13.35
2018-12-02T10:09:53.108Z,13.00
2018-12-02T10:11:28.072Z,12.15
2018-12-02T10:13:06.413Z,13.18
2018-12-02T10:14:41.438Z,12.95
2018-12-02T10:16:17.325Z,12.40
2018-12-02T10:17:51.516Z,12.95
2018-12-02T10:19:26.494Z,12.20
2018-12-02T10:21:01.525Z,12.58
2018-12-02T10:22:36.487Z,11.90
2018-12-02T10:24:11.454Z,11.28
2018-12-02T10:25:46.380Z,12.37
2018-12-02T10:27:21.416Z,11.63
2018-12-02T10:28:56.375Z,12.58
2018-12-02T10:30:31.357Z,12.68
2018-12-02T10:32:06.505Z,11.35
2018-12-02T10:33:42.162Z,11.83
2018-12-02T10:35:18.077Z,11.93
2018-12-02T10:36:53.143Z,12.47
2018-12-02T10:38:28.124Z,11.45
2018-12-02T10:40:03.423Z,12.15
2018-12-02T10:41:38.548Z,11.20
2018-12-02T10:43:13.692Z,12.60
2018-12-02T10:44:48.683Z,12.47
2018-12-02T10:46:23.995Z,11.15
2018-12-02T10:48:02.900Z,11.65
2018-12-02T10:49:37.954Z,11.83
2018-12-02T10:51:13.128Z,12.73
2018-12-02T10:52:48.471Z,11.40
2018-12-02T10:54:23.448Z,12.70
2018-12-02T10:56:00.208Z,12.63
2018-12-02T10:57:35.193Z,12.23
2018-12-02T10:59:10.116Z,11.60
2018-12-02T11:00:50.245Z,13.30
2018-12-02T11:03:44.553Z,12.15
2018-12-02T11:05:23.581Z,11.15
2018-12-02T11:07:05.921Z,12.23
2018-12-02T11:08:58.905Z,12.07
2018-12-02T11:10:54.386Z,13.50
2018-12-02T11:29:45.600Z,13.60
2018-12-02T11:31:20.771Z,13.43
2018-12-02T11:32:55.763Z,14.73
2018-12-02T11:34:30.719Z,15.00
2018-12-02T11:36:05.710Z,12.90
2018-12-02T11:37:40.796Z,13.13
2018-12-02T11:39:15.796Z,14.80
2018-12-02T11:40:50.772Z,14.85
2018-12-02T11:42:25.750Z,14.75
2018-12-02T11:44:00.970Z,14.68
2018-12-02T11:45:35.958Z,14.93
2018-12-02T11:47:10.888Z,13.93
2018-12-02T11:48:45.945Z,13.10
2018-12-02T11:50:23.231Z,14.18
2018-12-02T11:51:59.814Z,16.27
2018-12-02T11:53:34.803Z,14.20
2018-12-02T11:55:12.644Z,15.48
2018-12-02T11:56:48.025Z,17.05
2018-12-02T11:58:23.037Z,16.77
2018-12-02T11:59:58.039Z,17.40
2018-12-02T12:01:33.344Z,17.42
2018-12-02T12:03:08.288Z,17.40
2018-12-02T12:04:43.927Z,19.82
2018-12-02T12:06:19.017Z,20.00
2018-12-02T12:07:54.638Z,18.10
2018-12-02T12:09:29.566Z,17.48
2018-12-02T12:11:04.720Z,20.15
2018-12-02T12:12:39.713Z,18.20
2018-12-02T12:14:14.757Z,17.90
2018-12-02T12:15:49.767Z,18.05
2018-12-02T12:17:24.811Z,17.00
2018-12-02T12:18:59.840Z,16.87
2018-12-02T12:20:41.462Z,15.20
2018-12-02T12:22:16.424Z,15.28
2018-12-02T12:23:51.347Z,15.10
2018-12-02T12:25:26.380Z,15.20
2018-12-02T12:27:01.641Z,15.08
2018-12-02T12:28:36.804Z,14.28
2018-12-02T12:30:15.845Z,14.13
2018-12-02T12:31:50.847Z,13.53
2018-12-02T12:33:25.849Z,12.50
2018-12-02T12:35:00.832Z,13.03
2018-12-02T12:36:36.186Z,14.50
2018-12-02T12:38:11.439Z,13.15
2018-12-02T12:39:46.747Z,12.20
2018-12-02T12:41:21.986Z,11.68
2018-12-02T12:43:07.053Z,12.18
2018-12-02T12:44:42.103Z,11.70
2018-12-02T12:46:17.165Z,12.03
2018-12-02T12:47:52.165Z,13.35
2018-12-02T12:49:27.119Z,13.00
2018-12-02T12:51:02.346Z,11.85
2018-12-02T12:52:37.634Z,13.38
2018-12-02T12:54:12.901Z,11.70
2018-12-02T12:55:50.878Z,12.45
2018-12-02T12:57:22.953Z,13.40
2018-12-02T12:58:58.048Z,12.82
2018-12-02T13:00:33.033Z,12.70
2018-12-02T13:02:08.276Z,13.25
2018-12-02T13:03:44.330Z,12.98
2018-12-02T13:05:22.796Z,13.72
2018-12-02T13:06:59.584Z,13.22
2018-12-02T13:08:48.500Z,13.48
2018-12-02T13:10:44.877Z,12.33
2018-12-02T13:12:33.143Z,12.20
2018-12-02T13:23:01.926Z,11.70
2018-12-02T13:24:38.077Z,12.82
2018-12-02T13:27:33.830Z,13.55
2018-12-02T14:46:26.913Z,10.80
2018-12-02T14:48:01.923Z,12.10
2018-12-02T14:49:36.925Z,12.00
2018-12-02T14:51:11.913Z,12.25
2018-12-02T14:52:48.888Z,13.22
2018-12-02T14:54:24.607Z,12.78
2018-12-02T14:55:59.553Z,12.53
2018-12-02T14:57:34.539Z,13.32
2018-12-02T14:59:09.507Z,12.88
2018-12-02T15:00:44.568Z,13.55
2018-12-02T15:02:19.555Z,13.30
2018-12-02T15:03:54.571Z,13.13
2018-12-02T15:05:29.596Z,13.05
2018-12-02T15:07:04.651Z,14.05
2018-12-02T15:08:39.620Z,14.45
2018-12-02T15:10:17.557Z,14.43
2018-12-02T15:11:56.812Z,14.93
2018-12-02T15:13:31.880Z,14.15
2018-12-02T15:15:10.288Z,13.20
2018-12-02T15:16:52.425Z,13.55
2018-12-02T15:27:28.604Z,13.53
2018-12-02T15:29:03.722Z,13.53
2018-12-02T15:30:38.850Z,14.40
2018-12-02T15:32:14.026Z,14.95
2018-12-02T15:33:58.256Z,14.43
2018-12-02T15:35:33.417Z,14.98
2018-12-02T15:37:08.372Z,15.88
2018-12-02T15:38:43.361Z,15.10
2018-12-02T15:40:20.036Z,14.43
2018-12-02T15:41:55.160Z,16.07
2018-12-02T15:43:30.119Z,15.70
2018-12-02T15:45:05.600Z,16.37
2018-12-02T15:46:41.642Z,16.82
2018-12-02T15:48:16.629Z,16.80
2018-12-02T15:49:51.657Z,18.07
2018-12-02T15:51:26.592Z,15.63
2018-12-02T15:53:01.612Z,15.40
2018-12-02T15:54:36.603Z,16.67
2018-12-02T15:56:11.547Z,16.65
2018-12-02T15:57:46.519Z,18.15
2018-12-02T15:59:21.585Z,18.67
2018-12-02T16:00:57.143Z,19.05
2018-12-02T16:02:32.098Z,18.17
2018-12-02T16:04:07.314Z,19.25
2018-12-02T16:05:42.355Z,18.87
2018-12-02T16:07:17.308Z,17.05
2018-12-02T16:08:52.309Z,17.00
2018-12-02T16:10:27.284Z,16.85
2018-12-02T16:12:02.312Z,17.35
2018-12-02T16:13:37.321Z,17.57
2018-12-02T16:15:15.925Z,18.48
2018-12-02T16:16:50.865Z,17.45
2018-12-02T16:18:25.903Z,17.90
2018-12-02T16:20:00.877Z,17.92
2018-12-02T16:21:35.845Z,17.75
2018-12-02T16:23:10.877Z,20.55
2018-12-02T16:24:45.908Z,18.95
2018-12-02T16:26:20.864Z,21.73
2018-12-02T16:27:55.840Z,22.27
2018-12-02T16:29:30.803Z,22.30
2018-12-02T16:31:05.840Z,21.10
2018-12-02T16:32:40.804Z,22.42
2018-12-02T16:34:15.782Z,21.85
2018-12-02T16:35:50.748Z,22.10
2018-12-02T16:37:25.788Z,21.17
2018-12-02T16:39:00.778Z,20.82
2018-12-02T16:40:35.800Z,21.23
2018-12-02T16:42:10.755Z,20.77
2018-12-02T16:43:45.804Z,21.12
2018-12-02T16:45:20.909Z,20.97
2018-12-02T16:46:56.268Z,20.25
2018-12-02T16:48:31.238Z,20.75
2018-12-02T16:51:14.935Z,19.65
2018-12-02T16:52:50.193Z,18.23
2018-12-02T16:54:25.156Z,20.30
2018-12-02T16:56:08.759Z,19.12
2018-12-02T16:57:44.857Z,19.48
2018-12-02T16:59:27.285Z,20.55
2018-12-02T17:01:14.477Z,18.87
2018-12-02T17:02:49.524Z,20.15
2018-12-02T17:04:24.524Z,20.50
2018-12-02T17:05:59.453Z,19.98
2018-12-02T17:07:34.415Z,19.80
2018-12-02T17:09:12.515Z,18.67
2018-12-02T17:10:50.462Z,17.37
2018-12-02T17:12:22.608Z,17.87
2018-12-02T17:13:57.639Z,18.15
2018-12-02T17:15:32.647Z,17.75
2018-12-02T17:17:07.858Z,16.65
2018-12-02T17:18:42.848Z,17.85
2018-12-02T17:20:18.691Z,16.90
2018-12-02T17:21:53.764Z,17.00
2018-12-02T17:23:28.760Z,16.70
2018-12-02T17:25:04.302Z,16.10
2018-12-02T17:26:40.010Z,17.70
2018-12-02T17:28:14.667Z,17.27
2018-12-02T17:29:49.646Z,18.00
2018-12-02T17:31:27.475Z,18.25
2018-12-02T17:33:02.470Z,16.27
2018-12-02T17:34:37.524Z,16.27
2018-12-02T17:36:12.528Z,16.73
2018-12-02T17:37:47.495Z,17.92
2018-12-02T17:39:25.660Z,16.95
2018-12-02T17:41:00.666Z,17.07
2018-12-02T17:42:35.642Z,17.77
2018-12-02T17:44:10.595Z,16.52
2018-12-02T17:45:45.568Z,16.82
2018-12-02T17:47:20.631Z,17.27
2018-12-02T17:48:55.652Z,17.17
2018-12-02T17:50:30.661Z,17.90
2018-12-02T17:52:06.571Z,18.27
2018-12-02T17:53:43.412Z,18.85
2018-12-02T17:55:18.371Z,17.90
2018-12-02T17:56:53.301Z,17.30
2018-12-02T17:58:28.259Z,18.70
2018-12-02T18:00:03.352Z,18.10
2018-12-02T18:01:38.298Z,18.17
2018-12-02T18:03:18.199Z,17.95
2018-12-02T18:04:53.123Z,17.27
2018-12-02T18:06:28.148Z,16.95
2018-12-02T18:08:03.108Z,17.67
2018-12-02T18:09:38.060Z,17.12
2018-12-02T18:11:13.027Z,16.52
2018-12-02T18:12:48.080Z,15.98
2018-12-02T18:14:23.093Z,16.20
2018-12-02T18:15:58.062Z,16.23
2018-12-02T18:17:33.006Z,16.35
2018-12-02T18:19:08.241Z,16.23
2018-12-02T18:20:43.271Z,16.45
2018-12-02T18:22:18.244Z,16.37
2018-12-02T18:23:53.234Z,16.25
2018-12-02T18:25:28.279Z,16.75
2018-12-02T18:27:03.243Z,16.35
2018-12-02T18:28:38.191Z,15.13
2018-12-02T18:30:19.552Z,14.83
2018-12-02T18:31:54.559Z,16.27
2018-12-02T18:33:29.516Z,15.05
2018-12-02T18:35:05.372Z,16.20
2018-12-02T18:36:40.872Z,16.67
2018-12-02T18:38:21.385Z,15.88
2018-12-02T18:39:57.143Z,14.60
2018-12-02T18:41:40.174Z,16.27
2018-12-02T18:43:15.147Z,13.83
2018-12-02T18:44:50.177Z,16.40
2018-12-02T18:46:25.214Z,15.90
2018-12-02T18:48:00.197Z,15.78
2018-12-02T18:49:35.229Z,17.00
2018-12-02T18:51:10.222Z,15.55
2018-12-02T18:52:45.199Z,14.75
2018-12-02T18:54:20.194Z,16.48
2018-12-02T18:55:55.239Z,16.82
2018-12-02T18:57:30.251Z,16.87
2018-12-02T18:59:05.291Z,15.65
2018-12-02T19:00:45.685Z,17.60
2018-12-02T19:02:20.741Z,15.78
2018-12-02T19:03:56.369Z,15.38
2018-12-02T19:05:31.332Z,16.62
2018-12-02T19:07:07.091Z,16.77
2018-12-02T19:08:42.079Z,15.83
2018-12-02T19:10:22.750Z,17.07
2018-12-02T19:11:57.705Z,16.02
2018-12-02T19:13:32.941Z,16.40
2018-12-02T19:15:13.985Z,16.42
2018-12-02T19:16:49.124Z,16.25
2018-12-02T19:18:24.063Z,15.90
2018-12-02T19:19:59.050Z,15.78
2018-12-02T19:21:34.294Z,16.75
2018-12-02T19:23:12.692Z,15.30
2018-12-02T19:24:47.690Z,16.20
2018-12-02T19:26:22.759Z,15.98
2018-12-02T19:27:57.823Z,16.75
2018-12-02T19:29:32.764Z,16.10
2018-12-02T19:31:07.736Z,15.88
2018-12-02T19:32:42.837Z,17.20
2018-12-02T19:34:17.867Z,17.85
2018-12-02T19:35:57.020Z,17.67
2018-12-02T19:37:32.010Z,17.85
2018-12-02T19:39:11.286Z,16.57
2018-12-02T19:40:46.296Z,17.50
2018-12-02T19:42:21.273Z,18.32
2018-12-02T19:43:56.566Z,18.15
2018-12-02T19:45:31.608Z,17.73
2018-12-02T19:47:06.975Z,16.73
2018-12-02T19:48:41.912Z,16.93
2018-12-02T19:50:18.597Z,17.23
2018-12-02T19:51:53.580Z,17.87
2018-12-02T19:53:28.588Z,18.60
2018-12-02T19:55:03.532Z,18.35
2018-12-02T19:56:38.657Z,17.37
2018-12-02T19:58:14.818Z,17.40
2018-12-02T19:59:49.820Z,17.25
2018-12-02T20:01:24.764Z,17.20
2018-12-02T20:02:59.951Z,16.95
2018-12-02T20:04:35.062Z,16.32
2018-12-02T20:06:10.313Z,15.98
2018-12-02T20:07:47.470Z,16.60
2018-12-02T20:09:22.666Z,16.10
2018-12-02T20:10:57.795Z,15.70
2018-12-02T20:12:32.773Z,16.80
2018-12-02T20:14:08.211Z,15.40
2018-12-02T20:15:48.579Z,16.73
2018-12-02T20:17:23.688Z,15.03
2018-12-02T20:18:58.752Z,15.60
2018-12-02T20:20:40.346Z,15.58
2018-12-02T20:22:15.371Z,15.55
2018-12-02T20:23:55.570Z,16.48
2018-12-02T20:25:30.551Z,16.45
2018-12-02T20:27:05.500Z,16.07
2018-12-02T20:28:49.992Z,15.48
2018-12-02T20:30:25.024Z,15.90
2018-12-02T20:32:00.007Z,15.70
2018-12-02T20:33:34.976Z,14.60
2018-12-02T20:35:11.616Z,14.80
2018-12-02T20:36:46.688Z,14.65
2018-12-02T20:38:21.652Z,14.98
2018-12-02T20:39:56.583Z,15.53
2018-12-02T20:41:31.635Z,15.45
2018-12-02T20:43:06.590Z,15.00
2018-12-02T20:44:41.545Z,14.38
2018-12-02T20:46:17.418Z,15.28
2018-12-02T20:47:52.468Z,15.30
2018-12-02T20:49:27.389Z,15.68
2018-12-02T20:51:02.307Z,15.90
2018-12-02T20:52:37.316Z,15.15
2018-12-02T20:54:12.348Z,14.98
2018-12-02T20:55:47.348Z,16.35
2018-12-02T20:57:22.335Z,15.28
2018-12-02T20:58:57.287Z,15.00
2018-12-02T21:00:32.387Z,15.20
2018-12-02T21:02:07.572Z,15.90
2018-12-02T21:03:46.366Z,14.98
2018-12-02T21:05:31.265Z,14.38
2018-12-02T21:07:06.636Z,14.40
2018-12-02T21:08:41.625Z,14.95
2018-12-02T21:10:16.541Z,13.83
2018-12-02T21:11:51.488Z,14.78
2018-12-02T21:13:26.564Z,14.03
2018-12-02T21:15:01.528Z,14.20
2018-12-02T21:16:36.527Z,14.30
2018-12-02T21:18:11.489Z,14.13
2018-12-02T21:19:47.340Z,14.70
2018-12-02T21:21:22.284Z,14.25
2018-12-02T21:22:57.256Z,14.18
2018-12-02T21:24:32.189Z,13.20
2018-12-02T21:26:09.648Z,13.72
2018-12-02T21:27:44.708Z,13.45
2018-12-02T21:29:19.655Z,13.50
2018-12-02T21:30:54.628Z,14.05
2018-12-02T21:32:29.708Z,13.83
2018-12-02T21:34:04.758Z,12.63
2018-12-02T21:35:39.820Z,13.70
2018-12-02T21:37:14.763Z,13.60
2018-12-02T21:38:49.723Z,14.05
2018-12-02T21:40:24.759Z,13.58
2018-12-02T21:41:59.863Z,13.75
2018-12-02T21:43:44.148Z,13.22
2018-12-02T21:45:19.544Z,14.90
